Sonoma, California
Current Conditions -  °F | °C
As of 5:15 PM on Tuesday 21 Oct 2014 (Local Time) from KO69 Reporting Station
Clear Clear  
Wind Chill: 66°   Ceiling: Unl
Heat Index: 66°   Visibility: 10mi
Dew Point: 50°   Wind: 13mph
Humidity: 56%   Direction: 250°WSW
Pressure: 30.04"   Gusts: 17mph
Location:  38.29°N, 122.45°W
Report Text: KO69 220015Z AUTO 25011G15KT 230V290 10SM CLR 19/10 A3004 RMK AO1
Loading
Personal Weather Stations






























Interactive Weather Map
Tropical Storm Tracking
New forecast layout! Learn more

10-Day Weather Forecast

Advertisements
Track Severe Weather on mobile